createdAt,value
2023-05-10T00:00:29.217Z,13.10
2023-05-10T00:02:56.487Z,13.00
2023-05-10T00:05:23.834Z,13.00
2023-05-10T00:07:51.123Z,12.90
2023-05-10T00:10:18.474Z,12.90
2023-05-10T00:12:45.862Z,13.00
2023-05-10T00:15:13.155Z,12.90
2023-05-10T00:17:41.752Z,12.90
2023-05-10T00:20:10.292Z,12.90
2023-05-10T00:22:37.496Z,12.80
2023-05-10T00:25:05.750Z,12.80
2023-05-10T00:27:33.460Z,12.80
2023-05-10T00:30:00.794Z,12.70
2023-05-10T00:32:28.041Z,12.70
2023-05-10T00:34:57.862Z,12.70
2023-05-10T00:37:25.108Z,12.70
2023-05-10T00:39:52.414Z,12.70
2023-05-10T00:42:19.594Z,12.70
2023-05-10T00:44:47.587Z,12.70
2023-05-10T00:47:14.865Z,12.60
2023-05-10T00:49:42.676Z,12.60
2023-05-10T00:52:11.443Z,12.60
2023-05-10T00:54:38.718Z,12.50
2023-05-10T00:57:06.000Z,12.50
2023-05-10T00:59:33.412Z,12.50
2023-05-10T01:02:00.790Z,12.40
2023-05-10T01:04:29.291Z,12.40
2023-05-10T01:06:56.478Z,12.30
2023-05-10T01:09:27.283Z,12.30
2023-05-10T01:11:55.391Z,12.30
2023-05-10T01:14:23.740Z,12.20
2023-05-10T01:16:51.678Z,12.20
2023-05-10T01:19:22.865Z,12.10
2023-05-10T01:21:58.422Z,12.10
2023-05-10T01:24:48.210Z,12.10
2023-05-10T01:27:30.456Z,12.10
2023-05-10T01:30:21.972Z,12.00
2023-05-10T01:32:55.557Z,12.00
2023-05-10T01:35:33.518Z,12.00
2023-05-10T01:38:08.393Z,12.00
2023-05-10T01:40:41.793Z,12.00
2023-05-10T01:43:17.844Z,11.90
2023-05-10T01:45:51.765Z,11.90
2023-05-10T01:48:21.901Z,11.90
2023-05-10T01:50:50.798Z,11.90
2023-05-10T01:53:21.046Z,11.90
2023-05-10T01:55:51.703Z,11.80
2023-05-10T01:58:23.554Z,11.70
2023-05-10T02:00:53.294Z,11.70
2023-05-10T02:03:24.922Z,11.70
2023-05-10T02:05:54.053Z,11.70
2023-05-10T02:08:23.386Z,11.70
2023-05-10T02:10:53.297Z,11.60
2023-05-10T02:13:21.371Z,11.60
2023-05-10T02:15:50.809Z,11.50
2023-05-10T02:18:19.449Z,11.50
2023-05-10T02:20:48.602Z,11.50
2023-05-10T02:23:19.169Z,11.50
2023-05-10T02:25:48.931Z,11.50
2023-05-10T02:28:17.195Z,11.40
2023-05-10T02:30:45.008Z,11.40
2023-05-10T02:33:12.713Z,11.40
2023-05-10T02:35:40.420Z,11.40
2023-05-10T02:38:12.755Z,11.40
2023-05-10T02:40:42.367Z,11.30
2023-05-10T02:43:13.120Z,11.30
2023-05-10T02:45:41.161Z,11.30
2023-05-10T02:48:08.787Z,11.20
2023-05-10T02:50:38.342Z,11.20
2023-05-10T02:53:16.047Z,11.20
2023-05-10T02:55:45.984Z,11.20
2023-05-10T02:58:13.328Z,11.10
2023-05-10T03:00:40.796Z,11.10
2023-05-10T03:03:08.631Z,11.10
2023-05-10T03:05:35.953Z,11.00
2023-05-10T03:08:05.838Z,11.00
2023-05-10T03:10:38.963Z,11.00
2023-05-10T03:13:13.859Z,11.00
2023-05-10T03:15:50.366Z,11.00
2023-05-10T03:18:22.196Z,11.00
2023-05-10T03:20:51.291Z,11.00
2023-05-10T03:23:27.086Z,10.90
2023-05-10T03:25:55.929Z,10.90
2023-05-10T03:28:26.739Z,10.80
2023-05-10T03:30:55.060Z,10.80
2023-05-10T03:33:22.443Z,10.80
2023-05-10T03:35:50.520Z,10.80
2023-05-10T03:38:17.778Z,10.70
2023-05-10T03:40:45.047Z,10.80
2023-05-10T03:43:13.558Z,10.80
2023-05-10T03:45:40.772Z,10.80
2023-05-10T03:48:08.073Z,10.70
2023-05-10T03:50:35.395Z,10.70
2023-05-10T03:53:03.192Z,10.70
2023-05-10T03:55:30.707Z,10.70
2023-05-10T03:57:58.263Z,10.70
2023-05-10T04:00:28.925Z,10.70
2023-05-10T04:02:56.702Z,10.70
2023-05-10T04:05:24.263Z,10.70
2023-05-10T04:07:53.458Z,10.60
2023-05-10T04:10:21.611Z,10.60
2023-05-10T04:12:48.838Z,10.60
2023-05-10T04:15:16.220Z,10.70
2023-05-10T04:17:44.903Z,10.70
2023-05-10T04:20:13.412Z,10.60
2023-05-10T04:22:40.670Z,10.60
2023-05-10T04:25:08.813Z,10.70
2023-05-10T04:27:36.078Z,10.70
2023-05-10T04:30:05.084Z,10.70
2023-05-10T04:32:32.596Z,10.70
2023-05-10T04:35:01.217Z,10.60
2023-05-10T04:37:28.427Z,10.70
2023-05-10T04:39:55.725Z,10.70
2023-05-10T04:42:22.933Z,10.70
2023-05-10T04:44:50.114Z,10.70
2023-05-10T04:47:17.326Z,10.80
2023-05-10T04:49:44.540Z,10.80
2023-05-10T04:52:13.072Z,10.80
2023-05-10T04:54:40.257Z,10.90
2023-05-10T04:57:07.472Z,10.90
2023-05-10T04:59:36.610Z,10.90
2023-05-10T05:02:04.439Z,10.90
2023-05-10T05:04:32.333Z,11.00
2023-05-10T05:06:59.576Z,11.00
2023-05-10T05:09:28.093Z,11.00
2023-05-10T05:11:55.298Z,11.00
2023-05-10T05:14:22.671Z,11.10
2023-05-10T05:16:50.186Z,11.10
2023-05-10T05:19:17.480Z,11.20
2023-05-10T05:21:44.746Z,11.20
2023-05-10T05:24:13.534Z,11.30
2023-05-10T05:26:42.426Z,11.30
2023-05-10T05:29:09.676Z,11.40
2023-05-10T05:31:36.964Z,11.50
2023-05-10T05:34:04.364Z,11.50
2023-05-10T05:36:32.372Z,11.50
2023-05-10T05:38:59.657Z,11.60
2023-05-10T05:41:26.936Z,11.70
2023-05-10T05:43:55.564Z,11.80
2023-05-10T05:46:22.940Z,11.90
2023-05-10T05:48:50.167Z,12.00
2023-05-10T05:51:17.344Z,12.10
2023-05-10T05:53:44.524Z,12.20
2023-05-10T05:56:11.730Z,12.40
2023-05-10T05:58:38.915Z,12.50
2023-05-10T06:01:07.539Z,12.70
2023-05-10T06:03:34.794Z,12.80
2023-05-10T06:06:02.002Z,12.90
2023-05-10T06:08:29.184Z,13.00
2023-05-10T06:10:56.380Z,13.10
2023-05-10T06:13:23.628Z,13.20
2023-05-10T06:15:50.918Z,13.40
2023-05-10T06:18:19.474Z,13.50
2023-05-10T06:20:46.659Z,13.50
2023-05-10T06:23:13.842Z,13.50
2023-05-10T06:25:41.241Z,13.70
2023-05-10T06:28:08.473Z,13.80
2023-05-10T06:30:37.281Z,13.90
2023-05-10T06:33:04.543Z,14.00
2023-05-10T06:35:34.389Z,14.00
2023-05-10T06:38:01.594Z,14.10
2023-05-10T06:40:28.849Z,14.20
2023-05-10T06:42:56.001Z,14.30
2023-05-10T06:45:23.163Z,14.40
2023-05-10T06:47:50.377Z,14.40
2023-05-10T06:50:17.657Z,14.50
2023-05-10T06:52:46.187Z,14.60
2023-05-10T06:55:13.446Z,14.70
2023-05-10T06:57:40.873Z,14.80
2023-05-10T07:00:10.518Z,14.80
2023-05-10T07:02:37.852Z,14.80
2023-05-10T07:05:05.941Z,14.80
2023-05-10T07:07:33.176Z,14.90
2023-05-10T07:10:01.841Z,15.00
2023-05-10T07:12:29.078Z,15.00
2023-05-10T07:14:56.346Z,15.10
2023-05-10T07:17:23.751Z,15.20
2023-05-10T07:19:51.197Z,15.30
2023-05-10T07:22:18.430Z,15.30
2023-05-10T07:24:46.400Z,15.40
2023-05-10T07:27:14.950Z,15.50
2023-05-10T07:29:42.170Z,15.60
2023-05-10T07:32:09.455Z,15.60
2023-05-10T07:34:36.741Z,15.70
2023-05-10T07:37:04.032Z,15.80
2023-05-10T07:39:31.245Z,15.90
2023-05-10T07:41:58.458Z,16.00
2023-05-10T07:44:27.081Z,16.00
2023-05-10T07:46:54.348Z,16.10
2023-05-10T07:49:21.579Z,16.10
2023-05-10T07:51:48.814Z,16.20
2023-05-10T07:54:16.125Z,16.20
2023-05-10T07:56:47.870Z,16.20
2023-05-10T07:59:17.286Z,16.20
2023-05-10T08:01:46.096Z,16.30
2023-05-10T08:04:13.458Z,16.30
2023-05-10T08:06:41.389Z,16.40
2023-05-10T08:09:10.396Z,16.50
2023-05-10T08:11:37.758Z,16.50
2023-05-10T08:14:05.210Z,16.60
2023-05-10T08:16:33.430Z,16.70
2023-05-10T08:19:02.543Z,16.80
2023-05-10T08:21:30.303Z,16.80
2023-05-10T08:23:57.572Z,16.90
2023-05-10T08:26:24.827Z,16.90
2023-05-10T08:28:52.290Z,17.00
2023-05-10T08:31:19.936Z,17.00
2023-05-10T08:33:47.265Z,17.10
2023-05-10T08:36:20.605Z,17.10
2023-05-10T08:38:48.724Z,17.30
2023-05-10T08:41:18.165Z,17.30
2023-05-10T08:43:47.252Z,17.40
2023-05-10T08:46:18.392Z,17.50
2023-05-10T08:48:46.815Z,17.50
2023-05-10T08:51:18.549Z,17.60
2023-05-10T08:53:46.137Z,17.70
2023-05-10T08:56:13.688Z,17.70
2023-05-10T08:58:41.175Z,17.80
2023-05-10T09:01:09.795Z,17.90
2023-05-10T09:03:39.690Z,17.90
2023-05-10T09:06:07.903Z,18.00
2023-05-10T09:08:38.487Z,18.20
2023-05-10T09:11:06.702Z,18.30
2023-05-10T09:13:34.594Z,18.30
2023-05-10T09:16:07.115Z,18.30
2023-05-10T09:18:41.135Z,18.40
2023-05-10T09:21:08.674Z,18.40
2023-05-10T09:23:37.716Z,18.50
2023-05-10T09:26:05.766Z,18.50
2023-05-10T09:28:34.103Z,18.50
2023-05-10T09:31:01.446Z,18.70
2023-05-10T09:33:28.716Z,18.70
2023-05-10T09:35:56.037Z,18.80
2023-05-10T09:38:23.708Z,18.80
2023-05-10T09:40:55.463Z,18.90
2023-05-10T09:43:22.756Z,19.00
2023-05-10T09:45:54.338Z,19.10
2023-05-10T09:48:24.589Z,19.20
2023-05-10T09:50:58.243Z,19.20
2023-05-10T09:53:25.543Z,19.30
2023-05-10T09:55:52.878Z,19.30
2023-05-10T09:58:21.636Z,19.40
2023-05-10T10:00:52.246Z,19.40
2023-05-10T10:03:22.003Z,19.50
2023-05-10T10:05:50.329Z,19.60
2023-05-10T10:08:18.579Z,19.70
2023-05-10T10:10:47.334Z,19.80
2023-05-10T10:13:15.095Z,19.80
2023-05-10T10:15:45.457Z,19.90
2023-05-10T10:18:14.363Z,20.00
2023-05-10T10:20:42.112Z,20.10
2023-05-10T10:23:09.549Z,20.20
2023-05-10T10:25:37.001Z,20.30
2023-05-10T10:28:17.580Z,20.30
2023-05-10T10:30:49.862Z,20.40
2023-05-10T10:33:34.847Z,20.50
2023-05-10T10:36:04.547Z,20.50
2023-05-10T10:38:39.632Z,20.40
2023-05-10T10:41:12.924Z,20.50
2023-05-10T10:43:40.189Z,20.70
2023-05-10T10:46:17.804Z,20.70
2023-05-10T10:48:49.523Z,20.80
2023-05-10T10:51:16.766Z,20.90
2023-05-10T10:53:44.537Z,21.00
2023-05-10T10:56:14.536Z,21.00
2023-05-10T10:58:42.681Z,21.10
2023-05-10T11:01:16.430Z,21.20
2023-05-10T11:04:11.458Z,21.20
2023-05-10T11:06:38.700Z,21.20
2023-05-10T11:09:07.895Z,21.20
2023-05-10T11:11:36.364Z,21.20
2023-05-10T11:14:05.326Z,21.30
2023-05-10T11:16:44.011Z,21.30
2023-05-10T11:19:12.736Z,21.30
2023-05-10T11:21:47.237Z,21.30
2023-05-10T11:24:15.591Z,21.40
2023-05-10T11:26:43.384Z,21.50
2023-05-10T11:29:10.859Z,21.50
2023-05-10T11:31:45.511Z,21.50
2023-05-10T11:34:13.653Z,21.50
2023-05-10T11:36:40.853Z,21.60
2023-05-10T11:39:08.490Z,21.70
2023-05-10T11:41:36.387Z,21.90
2023-05-10T11:44:03.744Z,21.90
2023-05-10T11:46:31.093Z,22.00
2023-05-10T11:49:07.815Z,22.00
2023-05-10T11:51:36.802Z,22.10
2023-05-10T11:54:08.142Z,22.20
2023-05-10T11:56:35.362Z,22.20
2023-05-10T11:59:03.464Z,22.20
2023-05-10T12:01:31.301Z,22.20
2023-05-10T12:04:01.834Z,22.30
2023-05-10T12:06:30.571Z,22.40
2023-05-10T12:08:58.193Z,22.50
2023-05-10T12:11:26.664Z,22.50
2023-05-10T12:13:54.618Z,22.30
2023-05-10T12:16:24.422Z,22.40
2023-05-10T12:18:52.390Z,22.50
2023-05-10T12:21:21.917Z,22.60
2023-05-10T12:23:51.246Z,22.70
2023-05-10T12:26:18.514Z,22.90
2023-05-10T12:28:45.720Z,23.00
2023-05-10T12:31:12.920Z,23.10
2023-05-10T12:33:43.335Z,23.10
2023-05-10T12:36:12.190Z,23.20
2023-05-10T12:38:48.565Z,23.30
2023-05-10T12:41:16.805Z,23.30
2023-05-10T12:43:44.640Z,23.40
2023-05-10T12:46:13.631Z,23.50
2023-05-10T12:48:42.411Z,23.50
2023-05-10T12:51:14.153Z,23.50
2023-05-10T12:53:45.036Z,23.60
2023-05-10T12:56:13.392Z,23.70
2023-05-10T12:58:40.682Z,23.70
2023-05-10T13:01:07.985Z,23.60
2023-05-10T13:03:35.563Z,23.60
2023-05-10T13:06:03.253Z,23.80
2023-05-10T13:08:34.365Z,24.00
2023-05-10T13:11:04.056Z,24.10
2023-05-10T13:13:31.281Z,24.20
2023-05-10T13:15:58.476Z,24.40
2023-05-10T13:18:27.182Z,24.50
2023-05-10T13:20:55.081Z,24.60
2023-05-10T13:23:22.308Z,24.60
2023-05-10T13:25:49.540Z,24.70
2023-05-10T13:28:18.089Z,24.80
2023-05-10T13:30:45.530Z,24.90
2023-05-10T13:33:12.768Z,25.00
2023-05-10T13:35:39.963Z,25.20
2023-05-10T13:38:08.856Z,25.20
2023-05-10T13:40:36.930Z,25.40
2023-05-10T13:43:04.220Z,25.60
2023-05-10T13:45:32.735Z,25.40
2023-05-10T13:47:59.978Z,25.40
2023-05-10T13:50:27.872Z,25.40
2023-05-10T13:52:55.150Z,25.70
2023-05-10T13:55:22.640Z,25.90
2023-05-10T13:57:49.840Z,26.00
2023-05-10T14:00:17.749Z,26.00
2023-05-10T14:02:46.393Z,26.00
2023-05-10T14:05:14.037Z,26.20
2023-05-10T14:07:42.116Z,26.40
2023-05-10T14:10:09.857Z,26.60
2023-05-10T14:12:37.150Z,26.60
2023-05-10T14:15:07.544Z,26.60
2023-05-10T14:17:34.849Z,26.60
2023-05-10T14:20:04.701Z,26.80
2023-05-10T14:22:31.924Z,26.90
2023-05-10T14:24:59.480Z,26.90
2023-05-10T14:27:26.994Z,26.70
2023-05-10T14:29:54.951Z,26.70
2023-05-10T14:32:22.186Z,26.60
2023-05-10T14:34:49.400Z,26.80
2023-05-10T14:37:17.901Z,27.00
2023-05-10T14:39:45.101Z,27.30
2023-05-10T14:42:13.116Z,27.50
2023-05-10T14:44:40.657Z,27.50
2023-05-10T14:47:08.504Z,27.50
2023-05-10T14:49:36.768Z,27.60
2023-05-10T14:52:04.129Z,27.60
2023-05-10T14:54:34.447Z,27.70
2023-05-10T14:57:01.703Z,27.90
2023-05-10T14:59:28.960Z,27.90
2023-05-10T15:01:56.784Z,27.70
2023-05-10T15:04:25.961Z,27.50
2023-05-10T15:07:00.000Z,27.50
2023-05-10T15:09:28.435Z,27.50
2023-05-10T15:11:57.108Z,27.40
2023-05-10T15:14:24.524Z,27.40
2023-05-10T15:16:51.732Z,27.40
2023-05-10T15:19:18.937Z,27.30
2023-05-10T15:21:46.874Z,27.10
2023-05-10T15:24:14.239Z,26.80
2023-05-10T15:26:41.477Z,26.80
2023-05-10T15:29:10.519Z,26.80
2023-05-10T15:31:37.862Z,26.80
2023-05-10T15:34:05.110Z,26.60
2023-05-10T15:36:32.751Z,26.40
2023-05-10T15:38:59.950Z,26.20
2023-05-10T15:41:27.707Z,26.10
2023-05-10T15:43:55.037Z,25.90
2023-05-10T15:46:23.731Z,25.60
2023-05-10T15:48:51.297Z,25.70
2023-05-10T15:51:19.586Z,25.60
2023-05-10T15:54:00.510Z,25.40
2023-05-10T15:56:34.325Z,25.10
2023-05-10T15:59:01.761Z,24.90
2023-05-10T16:01:31.149Z,24.90
2023-05-10T16:03:58.386Z,24.90
2023-05-10T16:06:25.597Z,24.70
2023-05-10T16:08:54.145Z,24.40
2023-05-10T16:11:22.402Z,24.40
2023-05-10T16:13:49.853Z,24.40
2023-05-10T16:16:17.358Z,24.40
2023-05-10T16:18:46.356Z,24.40
2023-05-10T16:21:13.905Z,24.30
2023-05-10T16:23:41.619Z,24.30
2023-05-10T16:26:09.187Z,24.20
2023-05-10T16:28:37.266Z,24.10
2023-05-10T16:31:04.684Z,24.00
2023-05-10T16:33:32.090Z,23.80
2023-05-10T16:36:00.846Z,23.80
2023-05-10T16:38:28.305Z,23.70
2023-05-10T16:40:57.278Z,23.60
2023-05-10T16:43:26.140Z,23.60
2023-05-10T16:45:53.667Z,23.50
2023-05-10T16:48:21.131Z,23.50
2023-05-10T16:50:48.592Z,23.50
2023-05-10T16:53:17.343Z,23.40
2023-05-10T16:55:45.567Z,23.30
2023-05-10T16:58:12.902Z,23.30
2023-05-10T17:00:40.297Z,23.20
2023-05-10T17:03:07.796Z,23.20
2023-05-10T17:05:35.505Z,23.10
2023-05-10T17:08:02.839Z,22.90
2023-05-10T17:10:31.749Z,22.90
2023-05-10T17:12:59.136Z,22.80
2023-05-10T17:15:26.879Z,22.60
2023-05-10T17:17:54.387Z,22.50
2023-05-10T17:20:22.025Z,22.50
2023-05-10T17:22:49.360Z,22.50
2023-05-10T17:25:16.972Z,22.40
2023-05-10T17:27:45.820Z,22.30
2023-05-10T17:30:13.606Z,22.40
2023-05-10T17:32:41.104Z,22.30
2023-05-10T17:35:09.028Z,22.20
2023-05-10T17:37:36.299Z,22.10
2023-05-10T17:40:05.843Z,22.10
2023-05-10T17:42:33.183Z,22.00
2023-05-10T17:45:01.932Z,21.90
2023-05-10T17:47:29.658Z,21.80
2023-05-10T17:49:57.136Z,21.80
2023-05-10T17:52:24.619Z,21.80
2023-05-10T17:54:52.225Z,21.80
2023-05-10T17:57:20.725Z,21.70
2023-05-10T17:59:48.165Z,21.70
2023-05-10T18:02:17.006Z,21.60
2023-05-10T18:04:44.456Z,21.70
2023-05-10T18:07:11.919Z,21.60
2023-05-10T18:09:39.335Z,21.50
2023-05-10T18:12:06.844Z,21.40
2023-05-10T18:14:40.663Z,21.40
2023-05-10T18:17:08.777Z,21.30
2023-05-10T18:19:37.587Z,21.20
2023-05-10T18:22:05.022Z,21.30
2023-05-10T18:27:03.350Z,21.10
2023-05-10T18:29:30.715Z,21.00
2023-05-10T18:31:58.073Z,20.90
2023-05-10T18:34:25.430Z,20.90
2023-05-10T18:36:54.252Z,20.80
2023-05-10T18:39:21.792Z,20.70
2023-05-10T18:41:50.208Z,20.70
2023-05-10T18:44:18.884Z,20.60
2023-05-10T18:46:46.669Z,20.60
2023-05-10T18:49:14.105Z,20.50
2023-05-10T18:51:41.453Z,20.40
2023-05-10T18:54:10.180Z,20.40
2023-05-10T18:56:39.721Z,20.30
2023-05-10T18:59:07.066Z,20.20
2023-05-10T19:01:34.406Z,20.20
2023-05-10T19:04:01.913Z,20.10
2023-05-10T19:06:29.445Z,20.10
2023-05-10T19:08:56.899Z,20.00
2023-05-10T19:11:26.123Z,19.90
2023-05-10T19:13:53.481Z,19.90
2023-05-10T19:16:23.400Z,19.80
2023-05-10T19:18:51.862Z,19.70
2023-05-10T19:21:19.350Z,19.70
2023-05-10T19:23:47.364Z,19.60
2023-05-10T19:26:14.703Z,19.50
2023-05-10T19:28:43.468Z,19.50
2023-05-10T19:31:11.180Z,19.40
2023-05-10T19:33:38.556Z,19.40
2023-05-10T19:36:08.081Z,19.30
2023-05-10T19:38:35.701Z,19.30
2023-05-10T19:41:03.330Z,19.20
2023-05-10T19:43:34.338Z,19.20
2023-05-10T19:46:03.503Z,19.10
2023-05-10T19:48:31.520Z,19.10
2023-05-10T19:51:00.872Z,19.10
2023-05-10T19:53:28.874Z,19.00
2023-05-10T19:55:56.699Z,19.00
2023-05-10T19:58:25.063Z,18.90
2023-05-10T20:00:52.400Z,18.90
2023-05-10T20:03:21.110Z,18.80
2023-05-10T20:05:48.444Z,18.80
2023-05-10T20:08:16.194Z,18.80
2023-05-10T20:10:43.510Z,18.70
2023-05-10T20:13:10.916Z,18.70
2023-05-10T20:15:38.328Z,18.60
2023-05-10T20:18:05.909Z,18.60
2023-05-10T20:20:34.560Z,18.60
2023-05-10T20:23:01.920Z,18.50
2023-05-10T20:25:29.344Z,18.50
2023-05-10T20:27:56.673Z,18.40
2023-05-10T20:30:24.010Z,18.40
2023-05-10T20:32:51.927Z,18.30
2023-05-10T20:35:19.498Z,18.30
2023-05-10T20:37:48.418Z,18.30
2023-05-10T20:40:15.874Z,18.20
2023-05-10T20:42:43.401Z,18.20
2023-05-10T20:45:11.494Z,18.10
2023-05-10T20:47:38.838Z,18.10
2023-05-10T20:50:07.160Z,18.10
2023-05-10T20:52:34.606Z,18.00
2023-05-10T20:55:03.431Z,18.00
2023-05-10T20:57:30.814Z,18.00
2023-05-10T20:59:58.130Z,17.90
2023-05-10T21:02:25.944Z,17.90
2023-05-10T21:04:54.447Z,17.80
2023-05-10T21:07:22.986Z,17.80
2023-05-10T21:09:50.282Z,17.80
2023-05-10T21:12:18.967Z,17.70
2023-05-10T21:14:47.707Z,17.70
2023-05-10T21:17:14.957Z,17.70
2023-05-10T21:19:42.194Z,17.60
2023-05-10T21:22:09.514Z,17.60
2023-05-10T21:24:36.861Z,17.60
2023-05-10T21:27:04.441Z,17.50
2023-05-10T21:29:33.372Z,17.50
2023-05-10T21:32:01.200Z,17.40
2023-05-10T21:34:28.927Z,17.40
2023-05-10T21:36:56.606Z,17.40
2023-05-10T21:39:23.822Z,17.40
2023-05-10T21:41:51.025Z,17.30
2023-05-10T21:44:18.317Z,17.30
2023-05-10T21:46:46.830Z,17.20
2023-05-10T21:49:14.063Z,17.20
2023-05-10T21:51:41.263Z,17.20
2023-05-10T21:54:08.486Z,17.20
2023-05-10T21:56:35.691Z,17.20
2023-05-10T21:59:03.473Z,17.10
2023-05-10T22:01:30.721Z,17.10
2023-05-10T22:03:59.614Z,17.00
2023-05-10T22:06:26.855Z,17.00
2023-05-10T22:08:54.375Z,17.00
2023-05-10T22:11:22.076Z,17.00
2023-05-10T22:13:49.440Z,17.00
2023-05-10T22:16:16.776Z,17.00
2023-05-10T22:18:44.578Z,16.90
2023-05-10T22:21:13.174Z,16.90
2023-05-10T22:23:40.463Z,16.80
2023-05-10T22:26:07.826Z,16.80
2023-05-10T22:28:35.148Z,16.80
2023-05-10T22:31:02.472Z,16.70
2023-05-10T22:33:29.815Z,16.70
2023-05-10T22:35:57.092Z,16.70
2023-05-10T22:38:25.719Z,16.60
2023-05-10T22:40:52.996Z,16.60
2023-05-10T22:43:20.244Z,16.60
2023-05-10T22:45:47.582Z,16.50
2023-05-10T22:48:16.065Z,16.50
2023-05-10T22:50:43.364Z,16.50
2023-05-10T22:53:11.024Z,16.50
2023-05-10T22:55:39.700Z,16.40
2023-05-10T22:58:07.441Z,16.40
2023-05-10T23:00:34.724Z,16.30
2023-05-10T23:03:02.057Z,16.30
2023-05-10T23:05:29.339Z,16.30
2023-05-10T23:07:56.638Z,16.30
2023-05-10T23:10:24.126Z,16.30
2023-05-10T23:12:52.673Z,16.20
2023-05-10T23:15:19.916Z,16.20
2023-05-10T23:17:47.206Z,16.20
2023-05-10T23:20:14.481Z,16.20
2023-05-10T23:22:41.835Z,16.10
2023-05-10T23:25:10.095Z,16.10
2023-05-10T23:27:37.332Z,16.10
2023-05-10T23:30:07.403Z,16.00
2023-05-10T23:32:34.687Z,16.00
2023-05-10T23:35:02.115Z,15.90
2023-05-10T23:37:29.448Z,15.90
2023-05-10T23:39:56.755Z,15.90
2023-05-10T23:42:24.048Z,15.80
2023-05-10T23:44:52.317Z,15.80
2023-05-10T23:47:21.012Z,15.70
2023-05-10T23:49:49.891Z,15.70
2023-05-10T23:52:17.529Z,15.70
2023-05-10T23:54:45.940Z,15.60
2023-05-10T23:57:13.317Z,15.60
2023-05-10T23:59:40.543Z,15.60
